sensor_id;sensor_type;location;lat;lon;timestamp;pressure;altitude;pressure_sealevel;temperature;humidity
11648;BME280;5880;52.342;9.662;2024-01-06T00:01:41;99604.75;;;10.27;65.85
11648;BME280;5880;52.342;9.662;2024-01-06T00:04:06;99616.28;;;10.29;66.04
11648;BME280;5880;52.342;9.662;2024-01-06T00:06:32;99621.16;;;10.27;65.82
11648;BME280;5880;52.342;9.662;2024-01-06T00:08:58;99618.41;;;10.27;65.79
11648;BME280;5880;52.342;9.662;2024-01-06T00:11:23;99624.66;;;10.23;65.81
11648;BME280;5880;52.342;9.662;2024-01-06T00:13:50;99613.09;;;10.15;65.88
11648;BME280;5880;52.342;9.662;2024-01-06T00:16:19;99635.50;;;10.18;65.67
11648;BME280;5880;52.342;9.662;2024-01-06T00:18:46;99624.88;;;10.16;66.03
11648;BME280;5880;52.342;9.662;2024-01-06T00:21:12;99627.31;;;10.18;66.03
11648;BME280;5880;52.342;9.662;2024-01-06T00:23:41;99625.97;;;10.20;65.91
11648;BME280;5880;52.342;9.662;2024-01-06T00:26:09;99625.97;;;10.20;66.04
11648;BME280;5880;52.342;9.662;2024-01-06T00:28:35;99631.78;;;10.24;65.94
11648;BME280;5880;52.342;9.662;2024-01-06T00:31:01;99633.41;;;10.25;66.10
11648;BME280;5880;52.342;9.662;2024-01-06T00:33:27;99624.16;;;10.26;66.00
11648;BME280;5880;52.342;9.662;2024-01-06T00:35:52;99631.25;;;10.27;65.97
11648;BME280;5880;52.342;9.662;2024-01-06T00:38:20;99624.41;;;10.24;65.70
11648;BME280;5880;52.342;9.662;2024-01-06T00:40:46;99623.88;;;10.27;65.78
11648;BME280;5880;52.342;9.662;2024-01-06T00:43:11;99618.13;;;10.24;65.72
11648;BME280;5880;52.342;9.662;2024-01-06T00:45:37;99630.94;;;10.23;65.55
11648;BME280;5880;52.342;9.662;2024-01-06T00:48:04;99628.47;;;10.22;65.51
11648;BME280;5880;52.342;9.662;2024-01-06T00:50:30;99635.50;;;10.18;65.74
11648;BME280;5880;52.342;9.662;2024-01-06T00:52:56;99634.94;;;10.15;65.49
11648;BME280;5880;52.342;9.662;2024-01-06T00:55:22;99637.09;;;10.13;65.85
11648;BME280;5880;52.342;9.662;2024-01-06T00:57:49;99643.63;;;10.12;65.88
11648;BME280;5880;52.342;9.662;2024-01-06T01:00:15;99648.53;;;10.10;65.84
11648;BME280;5880;52.342;9.662;2024-01-06T01:02:41;99649.09;;;10.12;65.86
11648;BME280;5880;52.342;9.662;2024-01-06T01:05:07;99652.41;;;10.14;66.22
11648;BME280;5880;52.342;9.662;2024-01-06T01:07:33;99648.84;;;10.14;65.94
11648;BME280;5880;52.342;9.662;2024-01-06T01:09:59;99658.69;;;10.15;66.06
11648;BME280;5880;52.342;9.662;2024-01-06T01:12:25;99662.81;;;10.18;65.98
11648;BME280;5880;52.342;9.662;2024-01-06T01:14:51;99659.25;;;10.17;65.73
11648;BME280;5880;52.342;9.662;2024-01-06T01:17:17;99668.78;;;10.14;65.92
11648;BME280;5880;52.342;9.662;2024-01-06T01:19:43;99677.28;;;10.18;66.10
11648;BME280;5880;52.342;9.662;2024-01-06T01:22:08;99678.38;;;10.17;66.06
11648;BME280;5880;52.342;9.662;2024-01-06T01:24:34;99671.28;;;10.16;66.04
11648;BME280;5880;52.342;9.662;2024-01-06T01:27:00;99674.25;;;10.14;65.73
11648;BME280;5880;52.342;9.662;2024-01-06T01:29:25;99680.53;;;10.15;65.77
11648;BME280;5880;52.342;9.662;2024-01-06T01:31:51;99687.09;;;10.14;65.76
11648;BME280;5880;52.342;9.662;2024-01-06T01:34:17;99687.09;;;10.14;66.13
11648;BME280;5880;52.342;9.662;2024-01-06T01:36:43;99690.41;;;10.16;65.89
11648;BME280;5880;52.342;9.662;2024-01-06T01:39:08;99674.50;;;10.13;65.99
11648;BME280;5880;52.342;9.662;2024-01-06T01:41:35;99701.63;;;10.20;66.03
11648;BME280;5880;52.342;9.662;2024-01-06T01:44:01;99682.50;;;10.20;66.05
11648;BME280;5880;52.342;9.662;2024-01-06T01:46:28;99689.59;;;10.21;65.85
11648;BME280;5880;52.342;9.662;2024-01-06T01:49:00;99685.56;;;10.23;65.87
11648;BME280;5880;52.342;9.662;2024-01-06T01:51:33;99682.84;;;10.23;65.66
11648;BME280;5880;52.342;9.662;2024-01-06T01:54:01;99677.56;;;10.17;65.61
11648;BME280;5880;52.342;9.662;2024-01-06T01:56:27;99686.63;;;10.22;65.83
11648;BME280;5880;52.342;9.662;2024-01-06T01:58:55;99686.63;;;10.22;65.97
11648;BME280;5880;52.342;9.662;2024-01-06T02:01:21;99691.84;;;10.24;65.81
11648;BME280;5880;52.342;9.662;2024-01-06T02:03:46;99689.94;;;10.24;65.93
11648;BME280;5880;52.342;9.662;2024-01-06T02:06:12;99692.44;;;10.26;65.56
11648;BME280;5880;52.342;9.662;2024-01-06T02:08:38;99687.44;;;10.23;65.74
11648;BME280;5880;52.342;9.662;2024-01-06T02:11:05;99692.44;;;10.26;65.70
11648;BME280;5880;52.342;9.662;2024-01-06T02:13:35;99702.25;;;10.27;65.74
11648;BME280;5880;52.342;9.662;2024-01-06T02:16:03;99707.97;;;10.25;65.54
11648;BME280;5880;52.342;9.662;2024-01-06T02:18:33;99710.16;;;10.23;65.51
11648;BME280;5880;52.342;9.662;2024-01-06T02:21:01;99712.88;;;10.23;65.87
11648;BME280;5880;52.342;9.662;2024-01-06T02:23:30;99713.34;;;10.20;65.52
11648;BME280;5880;52.342;9.662;2024-01-06T02:25:56;99708.06;;;10.13;65.65
11648;BME280;5880;52.342;9.662;2024-01-06T02:28:22;99719.00;;;10.13;65.55
11648;BME280;5880;52.342;9.662;2024-01-06T02:30:49;99714.88;;;10.11;65.55
11648;BME280;5880;52.342;9.662;2024-01-06T02:33:14;99711.00;;;10.07;65.62
11648;BME280;5880;52.342;9.662;2024-01-06T02:35:40;99715.91;;;10.05;65.59
11648;BME280;5880;52.342;9.662;2024-01-06T02:38:06;99725.72;;;10.06;65.74
11648;BME280;5880;52.342;9.662;2024-01-06T02:40:32;99721.09;;;10.06;65.55
11648;BME280;5880;52.342;9.662;2024-01-06T02:42:59;99726.53;;;10.06;65.66
11648;BME280;5880;52.342;9.662;2024-01-06T02:45:24;99726.22;;;10.03;65.81
11648;BME280;5880;52.342;9.662;2024-01-06T02:47:50;99738.31;;;10.07;65.46
11648;BME280;5880;52.342;9.662;2024-01-06T02:50:16;99734.72;;;10.06;65.89
11648;BME280;5880;52.342;9.662;2024-01-06T02:52:43;99734.50;;;10.08;65.87
11648;BME280;5880;52.342;9.662;2024-01-06T02:55:09;99739.94;;;10.08;65.63
11648;BME280;5880;52.342;9.662;2024-01-06T02:57:37;99738.63;;;10.10;65.62
11648;BME280;5880;52.342;9.662;2024-01-06T03:00:04;99732.34;;;10.10;65.62
11648;BME280;5880;52.342;9.662;2024-01-06T03:02:29;99737.56;;;10.11;65.59
11648;BME280;5880;52.342;9.662;2024-01-06T03:04:55;99744.91;;;10.11;65.67
11648;BME280;5880;52.342;9.662;2024-01-06T03:07:21;99747.06;;;10.09;65.62
11648;BME280;5880;52.342;9.662;2024-01-06T03:09:47;99752.78;;;10.07;65.83
11648;BME280;5880;52.342;9.662;2024-01-06T03:12:13;99753.59;;;10.08;65.64
11648;BME280;5880;52.342;9.662;2024-01-06T03:14:38;99750.06;;;10.07;65.77
11648;BME280;5880;52.342;9.662;2024-01-06T03:17:04;99753.38;;;10.09;65.47
11648;BME280;5880;52.342;9.662;2024-01-06T03:19:33;99756.91;;;10.10;65.58
11648;BME280;5880;52.342;9.662;2024-01-06T03:21:58;99761.56;;;10.09;65.62
11648;BME280;5880;52.342;9.662;2024-01-06T03:24:26;99751.69;;;10.08;65.77
11648;BME280;5880;52.342;9.662;2024-01-06T03:26:52;99763.19;;;10.10;65.55
11648;BME280;5880;52.342;9.662;2024-01-06T03:29:18;99771.16;;;10.12;65.62
11648;BME280;5880;52.342;9.662;2024-01-06T03:31:45;99761.28;;;10.11;65.32
11648;BME280;5880;52.342;9.662;2024-01-06T03:34:11;99763.72;;;10.07;65.34
11648;BME280;5880;52.342;9.662;2024-01-06T03:36:37;99772.13;;;10.06;65.54
11648;BME280;5880;52.342;9.662;2024-01-06T03:39:04;99759.50;;;10.00;65.42
11648;BME280;5880;52.342;9.662;2024-01-06T03:41:30;99761.88;;;9.96;65.48
11648;BME280;5880;52.342;9.662;2024-01-06T03:43:55;99774.22;;;9.99;65.49
11648;BME280;5880;52.342;9.662;2024-01-06T03:46:22;99775.88;;;10.00;65.46
11648;BME280;5880;52.342;9.662;2024-01-06T03:48:47;99771.25;;;10.00;65.65
11648;BME280;5880;52.342;9.662;2024-01-06T03:51:13;99781.34;;;10.00;65.29
11648;BME280;5880;52.342;9.662;2024-01-06T03:53:39;99784.31;;;9.98;65.20
11648;BME280;5880;52.342;9.662;2024-01-06T03:56:06;99775.19;;;9.92;65.33
11648;BME280;5880;52.342;9.662;2024-01-06T03:58:32;99785.63;;;9.96;65.23
11648;BME280;5880;52.342;9.662;2024-01-06T04:00:58;99788.84;;;9.92;65.19
11648;BME280;5880;52.342;9.662;2024-01-06T04:03:24;99797.78;;;9.88;65.32
11648;BME280;5880;52.342;9.662;2024-01-06T04:05:50;99799.22;;;9.90;65.30
11648;BME280;5880;52.342;9.662;2024-01-06T04:08:15;99796.13;;;9.87;65.09
11648;BME280;5880;52.342;9.662;2024-01-06T04:10:41;99794.16;;;9.82;65.07
11648;BME280;5880;52.342;9.662;2024-01-06T04:13:15;99805.41;;;9.86;65.07
11648;BME280;5880;52.342;9.662;2024-01-06T04:15:40;99805.56;;;9.79;65.02
11648;BME280;5880;52.342;9.662;2024-01-06T04:18:06;99815.16;;;9.82;65.16
11648;BME280;5880;52.342;9.662;2024-01-06T04:20:32;99816.56;;;9.84;65.47
11648;BME280;5880;52.342;9.662;2024-01-06T04:22:58;99817.38;;;9.85;65.34
11648;BME280;5880;52.342;9.662;2024-01-06T04:25:25;99823.19;;;9.88;65.41
11648;BME280;5880;52.342;9.662;2024-01-06T04:27:50;99821.28;;;9.89;65.24
11648;BME280;5880;52.342;9.662;2024-01-06T04:30:17;99825.66;;;9.90;65.16
11648;BME280;5880;52.342;9.662;2024-01-06T04:32:43;99826.38;;;9.85;65.15
11648;BME280;5880;52.342;9.662;2024-01-06T04:35:09;99824.25;;;9.87;64.99
11648;BME280;5880;52.342;9.662;2024-01-06T04:37:35;99824.50;;;9.86;65.33
11648;BME280;5880;52.342;9.662;2024-01-06T04:40:01;99839.81;;;9.87;65.16
11648;BME280;5880;52.342;9.662;2024-01-06T04:42:27;99846.00;;;9.82;64.98
11648;BME280;5880;52.342;9.662;2024-01-06T04:44:52;99836.75;;;9.83;65.03
11648;BME280;5880;52.342;9.662;2024-01-06T04:47:18;99841.03;;;9.79;65.12
11648;BME280;5880;52.342;9.662;2024-01-06T04:49:45;99840.22;;;9.79;65.16
11648;BME280;5880;52.342;9.662;2024-01-06T04:52:11;99842.84;;;9.73;64.98
11648;BME280;5880;52.342;9.662;2024-01-06T04:54:36;99850.44;;;9.71;64.83
11648;BME280;5880;52.342;9.662;2024-01-06T04:57:03;99855.88;;;9.71;64.98
11648;BME280;5880;52.342;9.662;2024-01-06T04:59:30;99842.75;;;9.68;65.14
11648;BME280;5880;52.342;9.662;2024-01-06T05:01:57;99849.28;;;9.67;65.12
11648;BME280;5880;52.342;9.662;2024-01-06T05:04:24;99859.72;;;9.70;65.12
11648;BME280;5880;52.342;9.662;2024-01-06T05:06:51;99862.44;;;9.70;65.21
11648;BME280;5880;52.342;9.662;2024-01-06T05:09:17;99860.78;;;9.69;65.12
11648;BME280;5880;52.342;9.662;2024-01-06T05:11:46;99855.22;;;9.64;64.97
11648;BME280;5880;52.342;9.662;2024-01-06T05:14:11;99865.41;;;9.69;65.08
11648;BME280;5880;52.342;9.662;2024-01-06T05:16:37;99865.91;;;9.66;64.87
11648;BME280;5880;52.342;9.662;2024-01-06T05:19:03;99879.44;;;9.61;64.95
11648;BME280;5880;52.342;9.662;2024-01-06T05:21:29;99879.44;;;9.61;64.98
11648;BME280;5880;52.342;9.662;2024-01-06T05:23:55;99891.41;;;9.60;65.16
11648;BME280;5880;52.342;9.662;2024-01-06T05:26:21;99893.09;;;9.61;65.18
11648;BME280;5880;52.342;9.662;2024-01-06T05:28:47;99886.22;;;9.58;65.08
11648;BME280;5880;52.342;9.662;2024-01-06T05:31:12;99893.59;;;9.58;65.24
11648;BME280;5880;52.342;9.662;2024-01-06T05:33:38;99893.09;;;9.61;65.27
11648;BME280;5880;52.342;9.662;2024-01-06T05:36:04;99894.72;;;9.62;65.29
11648;BME280;5880;52.342;9.662;2024-01-06T05:38:30;99890.69;;;9.64;65.26
11648;BME280;5880;52.342;9.662;2024-01-06T05:40:56;99886.66;;;9.67;65.30
11648;BME280;5880;52.342;9.662;2024-01-06T05:43:21;99883.09;;;9.66;64.91
11648;BME280;5880;52.342;9.662;2024-01-06T05:45:47;99895.41;;;9.69;65.10
11648;BME280;5880;52.342;9.662;2024-01-06T05:48:13;99898.16;;;9.69;64.90
11648;BME280;5880;52.342;9.662;2024-01-06T05:50:39;99903.03;;;9.67;64.83
11648;BME280;5880;52.342;9.662;2024-01-06T05:53:06;99901.03;;;9.62;64.84
11648;BME280;5880;52.342;9.662;2024-01-06T05:55:32;99895.00;;;9.60;64.78
11648;BME280;5880;52.342;9.662;2024-01-06T05:57:57;99909.69;;;9.59;64.89
11648;BME280;5880;52.342;9.662;2024-01-06T06:00:23;99911.81;;;9.57;64.88
11648;BME280;5880;52.342;9.662;2024-01-06T06:02:49;99912.56;;;9.52;64.96
11648;BME280;5880;52.342;9.662;2024-01-06T06:05:14;99922.41;;;9.54;64.90
11648;BME280;5880;52.342;9.662;2024-01-06T06:07:40;99920.75;;;9.52;64.73
11648;BME280;5880;52.342;9.662;2024-01-06T06:10:11;99926.69;;;9.49;64.83
11648;BME280;5880;52.342;9.662;2024-01-06T06:12:37;99930.38;;;9.43;64.74
11648;BME280;5880;52.342;9.662;2024-01-06T06:15:05;99936.00;;;9.37;64.77
11648;BME280;5880;52.342;9.662;2024-01-06T06:17:34;99943.59;;;9.35;64.92
11648;BME280;5880;52.342;9.662;2024-01-06T06:20:00;99945.72;;;9.33;64.82
11648;BME280;5880;52.342;9.662;2024-01-06T06:22:26;99939.91;;;9.29;64.81
11648;BME280;5880;52.342;9.662;2024-01-06T06:24:56;99952.72;;;9.28;64.85
11648;BME280;5880;52.342;9.662;2024-01-06T06:27:23;99962.81;;;9.28;65.02
11648;BME280;5880;52.342;9.662;2024-01-06T06:29:49;99966.56;;;9.27;65.06
11648;BME280;5880;52.342;9.662;2024-01-06T06:32:15;99975.63;;;9.27;65.03
11648;BME280;5880;52.342;9.662;2024-01-06T06:34:42;99981.28;;;9.26;64.67
11648;BME280;5880;52.342;9.662;2024-01-06T06:37:07;99982.59;;;9.23;65.14
11648;BME280;5880;52.342;9.662;2024-01-06T06:39:33;99982.84;;;9.22;65.23
11648;BME280;5880;52.342;9.662;2024-01-06T06:42:01;99987.47;;;9.21;65.24
11648;BME280;5880;52.342;9.662;2024-01-06T06:44:27;100000.50;;;9.19;64.98
11648;BME280;5880;52.342;9.662;2024-01-06T06:46:53;100001.81;;;9.17;65.18
11648;BME280;5880;52.342;9.662;2024-01-06T06:49:18;100006.22;;;9.18;65.13
11648;BME280;5880;52.342;9.662;2024-01-06T06:51:44;99996.03;;;9.13;64.97
11648;BME280;5880;52.342;9.662;2024-01-06T06:54:13;100008.78;;;9.13;64.70
11648;BME280;5880;52.342;9.662;2024-01-06T06:56:39;100005.72;;;9.09;65.11
11648;BME280;5880;52.342;9.662;2024-01-06T06:59:04;100007.38;;;9.10;65.20
11648;BME280;5880;52.342;9.662;2024-01-06T07:01:30;100014.75;;;9.09;65.24
11648;BME280;5880;52.342;9.662;2024-01-06T07:03:56;100023.72;;;9.10;65.05
11648;BME280;5880;52.342;9.662;2024-01-06T07:06:22;100009.16;;;9.04;65.17
11648;BME280;5880;52.342;9.662;2024-01-06T07:08:47;100016.03;;;9.07;65.08
11648;BME280;5880;52.342;9.662;2024-01-06T07:11:13;100024.44;;;9.05;65.20
11648;BME280;5880;52.342;9.662;2024-01-06T07:13:40;100024.69;;;9.04;65.01
11648;BME280;5880;52.342;9.662;2024-01-06T07:16:06;100024.94;;;9.02;64.95
11648;BME280;5880;52.342;9.662;2024-01-06T07:18:32;100027.66;;;9.02;65.23
11648;BME280;5880;52.342;9.662;2024-01-06T07:20:58;100030.59;;;9.01;65.00
11648;BME280;5880;52.342;9.662;2024-01-06T07:23:24;100033.59;;;8.99;65.09
11648;BME280;5880;52.342;9.662;2024-01-06T07:25:49;100038.19;;;8.99;65.11
11648;BME280;5880;52.342;9.662;2024-01-06T07:28:15;100033.59;;;8.99;65.11
11648;BME280;5880;52.342;9.662;2024-01-06T07:30:41;100045.78;;;8.97;65.04
11648;BME280;5880;52.342;9.662;2024-01-06T07:33:06;100051.69;;;8.94;65.32
11648;BME280;5880;52.342;9.662;2024-01-06T07:35:32;100053.97;;;8.97;65.25
11648;BME280;5880;52.342;9.662;2024-01-06T07:37:58;100063.41;;;8.94;65.34
11648;BME280;5880;52.342;9.662;2024-01-06T07:40:23;100068.41;;;8.97;65.23
11648;BME280;5880;52.342;9.662;2024-01-06T07:42:51;100062.97;;;8.97;65.23
11648;BME280;5880;52.342;9.662;2024-01-06T07:45:17;100067.94;;;9.00;65.32
11648;BME280;5880;52.342;9.662;2024-01-06T07:47:42;100079.66;;;9.01;65.22
11648;BME280;5880;52.342;9.662;2024-01-06T07:50:09;100073.88;;;8.97;65.08
11648;BME280;5880;52.342;9.662;2024-01-06T07:52:35;100080.16;;;8.98;65.14
11648;BME280;5880;52.342;9.662;2024-01-06T07:55:00;100093.78;;;8.98;65.08
11648;BME280;5880;52.342;9.662;2024-01-06T07:57:26;100096.72;;;8.96;65.10
11648;BME280;5880;52.342;9.662;2024-01-06T07:59:51;100088.66;;;8.90;65.00
11648;BME280;5880;52.342;9.662;2024-01-06T08:02:17;100105.59;;;8.92;64.94
11648;BME280;5880;52.342;9.662;2024-01-06T08:04:44;100108.81;;;8.88;64.99
11648;BME280;5880;52.342;9.662;2024-01-06T08:07:10;100108.47;;;8.85;64.88
11648;BME280;5880;52.342;9.662;2024-01-06T08:09:35;100110.59;;;8.83;64.92
11648;BME280;5880;52.342;9.662;2024-01-06T08:12:02;100111.28;;;8.78;64.89
11648;BME280;5880;52.342;9.662;2024-01-06T08:14:28;100119.91;;;8.75;64.89
11648;BME280;5880;52.342;9.662;2024-01-06T08:16:54;100121.91;;;8.68;65.12
11648;BME280;5880;52.342;9.662;2024-01-06T08:19:20;100131.84;;;8.62;65.11
11648;BME280;5880;52.342;9.662;2024-01-06T08:21:45;100132.88;;;8.61;65.11
11648;BME280;5880;52.342;9.662;2024-01-06T08:24:12;100133.34;;;8.58;64.98
11648;BME280;5880;52.342;9.662;2024-01-06T08:26:38;100134.66;;;8.56;65.27
11648;BME280;5880;52.342;9.662;2024-01-06T08:29:04;100141.41;;;8.53;65.04
11648;BME280;5880;52.342;9.662;2024-01-06T08:31:29;100143.72;;;8.50;65.14
11648;BME280;5880;52.342;9.662;2024-01-06T08:33:55;100151.34;;;8.48;65.05
11648;BME280;5880;52.342;9.662;2024-01-06T08:36:21;100152.38;;;8.47;65.23
11648;BME280;5880;52.342;9.662;2024-01-06T08:38:47;100146.78;;;8.41;65.37
11648;BME280;5880;52.342;9.662;2024-01-06T08:41:12;100160.53;;;8.47;65.41
11648;BME280;5880;52.342;9.662;2024-01-06T08:43:38;100168.34;;;8.43;65.52
11648;BME280;5880;52.342;9.662;2024-01-06T08:46:04;100167.28;;;8.44;65.26
11648;BME280;5880;52.342;9.662;2024-01-06T08:48:31;100171.66;;;8.45;65.68
11648;BME280;5880;52.342;9.662;2024-01-06T08:50:56;100168.09;;;8.44;65.47
11648;BME280;5880;52.342;9.662;2024-01-06T08:53:22;100179.41;;;8.48;65.51
11648;BME280;5880;52.342;9.662;2024-01-06T08:55:48;100179.41;;;8.48;65.66
11648;BME280;5880;52.342;9.662;2024-01-06T08:58:13;100185.06;;;8.47;65.65
11648;BME280;5880;52.342;9.662;2024-01-06T09:00:39;100179.59;;;8.47;65.03
11648;BME280;5880;52.342;9.662;2024-01-06T09:03:05;100195.94;;;8.47;65.07
11648;BME280;5880;52.342;9.662;2024-01-06T09:05:30;100200.94;;;8.50;65.40
11648;BME280;5880;52.342;9.662;2024-01-06T09:07:56;100211.81;;;8.50;65.24
11648;BME280;5880;52.342;9.662;2024-01-06T09:10:22;100208.41;;;8.54;65.32
11648;BME280;5880;52.342;9.662;2024-01-06T09:12:48;100219.31;;;8.54;65.37
11648;BME280;5880;52.342;9.662;2024-01-06T09:15:13;100221.59;;;8.57;65.25
11648;BME280;5880;52.342;9.662;2024-01-06T09:17:39;100225.16;;;8.58;65.38
11648;BME280;5880;52.342;9.662;2024-01-06T09:20:06;100237.56;;;8.54;65.04
11648;BME280;5880;52.342;9.662;2024-01-06T09:22:32;100239.06;;;8.50;64.93
11648;BME280;5880;52.342;9.662;2024-01-06T09:24:57;100237.03;;;8.45;64.77
11648;BME280;5880;52.342;9.662;2024-01-06T09:27:23;100245.88;;;8.40;64.90
11648;BME280;5880;52.342;9.662;2024-01-06T09:29:49;100244.19;;;8.39;65.17
11648;BME280;5880;52.342;9.662;2024-01-06T09:32:16;100251.53;;;8.39;65.31
11648;BME280;5880;52.342;9.662;2024-01-06T09:34:42;100259.72;;;8.39;65.16
11648;BME280;5880;52.342;9.662;2024-01-06T09:37:08;100250.72;;;8.38;65.30
11648;BME280;5880;52.342;9.662;2024-01-06T09:39:33;100255.09;;;8.39;65.20
11648;BME280;5880;52.342;9.662;2024-01-06T09:41:59;100262.59;;;8.44;65.58
11648;BME280;5880;52.342;9.662;2024-01-06T09:44:25;100267.84;;;8.45;65.00
11648;BME280;5880;52.342;9.662;2024-01-06T09:46:51;100256.56;;;8.42;65.35
11648;BME280;5880;52.342;9.662;2024-01-06T09:49:23;100273.50;;;8.44;65.19
11648;BME280;5880;52.342;9.662;2024-01-06T09:51:51;100273.72;;;8.42;65.28
11648;BME280;5880;52.342;9.662;2024-01-06T09:54:23;100269.28;;;8.48;65.28
11648;BME280;5880;52.342;9.662;2024-01-06T09:56:52;100280.16;;;8.48;65.35
11648;BME280;5880;52.342;9.662;2024-01-06T09:59:18;100277.66;;;8.47;65.22
11648;BME280;5880;52.342;9.662;2024-01-06T10:01:47;100286.03;;;8.45;65.23
11648;BME280;5880;52.342;9.662;2024-01-06T10:04:14;100276.25;;;8.37;65.06
11648;BME280;5880;52.342;9.662;2024-01-06T10:06:41;100276.44;;;8.42;65.44
11648;BME280;5880;52.342;9.662;2024-01-06T10:09:07;100280.38;;;8.47;65.63
11648;BME280;5880;52.342;9.662;2024-01-06T10:11:35;100288.47;;;8.53;65.36
11648;BME280;5880;52.342;9.662;2024-01-06T10:14:03;100299.53;;;8.58;65.21
11648;BME280;5880;52.342;9.662;2024-01-06T10:16:28;100299.91;;;8.62;65.51
11648;BME280;5880;52.342;9.662;2024-01-06T10:18:54;100301.78;;;8.61;65.13
11648;BME280;5880;52.342;9.662;2024-01-06T10:21:25;100304.06;;;8.64;65.29
11648;BME280;5880;52.342;9.662;2024-01-06T10:23:51;100299.66;;;8.63;65.26
11648;BME280;5880;52.342;9.662;2024-01-06T10:26:17;100316.19;;;8.69;64.97
11648;BME280;5880;52.342;9.662;2024-01-06T10:28:43;100295.91;;;8.64;64.96
11648;BME280;5880;52.342;9.662;2024-01-06T10:31:09;100306.34;;;8.68;64.91
11648;BME280;5880;52.342;9.662;2024-01-06T10:33:35;100308.09;;;8.62;64.76
11648;BME280;5880;52.342;9.662;2024-01-06T10:36:01;100300.00;;;8.55;64.89
11648;BME280;5880;52.342;9.662;2024-01-06T10:38:29;100319.22;;;8.60;64.99
11648;BME280;5880;52.342;9.662;2024-01-06T10:41:01;100313.16;;;8.58;64.73
11648;BME280;5880;52.342;9.662;2024-01-06T10:43:35;100320.97;;;8.55;64.90
11648;BME280;5880;52.342;9.662;2024-01-06T10:46:04;100314.91;;;8.53;65.04
11648;BME280;5880;52.342;9.662;2024-01-06T10:48:35;100317.16;;;8.56;65.11
11648;BME280;5880;52.342;9.662;2024-01-06T10:51:01;100328.44;;;8.59;65.26
11648;BME280;5880;52.342;9.662;2024-01-06T10:53:33;100329.50;;;8.58;65.12
11648;BME280;5880;52.342;9.662;2024-01-06T10:56:03;100335.41;;;8.55;64.97
11648;BME280;5880;52.342;9.662;2024-01-06T10:58:32;100334.19;;;8.51;65.04
11648;BME280;5880;52.342;9.662;2024-01-06T11:01:00;100335.06;;;8.45;64.65
11648;BME280;5880;52.342;9.662;2024-01-06T11:03:29;100338.28;;;8.35;64.68
11648;BME280;5880;52.342;9.662;2024-01-06T11:05:55;100330.13;;;8.35;64.96
11648;BME280;5880;52.342;9.662;2024-01-06T11:08:22;100329.28;;;8.35;65.21
11648;BME280;5880;52.342;9.662;2024-01-06T11:10:49;100334.94;;;8.33;64.90
11648;BME280;5880;52.342;9.662;2024-01-06T11:13:21;100345.41;;;8.36;65.08
11648;BME280;5880;52.342;9.662;2024-01-06T11:15:49;100345.41;;;8.36;65.01
11648;BME280;5880;52.342;9.662;2024-01-06T11:18:39;100340.19;;;8.35;64.78
11648;BME280;5880;52.342;9.662;2024-01-06T11:21:15;100336.22;;;8.31;65.02
11648;BME280;5880;52.342;9.662;2024-01-06T11:24:19;100340.69;;;8.25;65.17
11648;BME280;5880;52.342;9.662;2024-01-06T11:26:52;100334.03;;;8.21;65.34
11648;BME280;5880;52.342;9.662;2024-01-06T11:29:20;100327.13;;;8.18;65.28
11648;BME280;5880;52.342;9.662;2024-01-06T11:32:27;100334.47;;;8.18;65.18
11648;BME280;5880;52.342;9.662;2024-01-06T11:34:55;100332.44;;;8.13;65.28
11648;BME280;5880;52.342;9.662;2024-01-06T11:40:10;100339.59;;;8.08;64.97
11648;BME280;5880;52.342;9.662;2024-01-06T11:42:42;100340.03;;;8.04;65.34
11648;BME280;5880;52.342;9.662;2024-01-06T11:45:08;100331.25;;;8.02;65.31
11648;BME280;5880;52.342;9.662;2024-01-06T11:47:35;100339.22;;;8.04;65.48
11648;BME280;5880;52.342;9.662;2024-01-06T11:50:03;100340.09;;;7.98;64.99
11648;BME280;5880;52.342;9.662;2024-01-06T11:52:34;100345.53;;;7.98;64.87
11648;BME280;5880;52.342;9.662;2024-01-06T11:55:00;100335.56;;;7.92;65.34
11648;BME280;5880;52.342;9.662;2024-01-06T11:57:28;100337.41;;;7.91;65.23
11648;BME280;5880;52.342;9.662;2024-01-06T11:59:54;100338.47;;;7.90;65.25
11648;BME280;5880;52.342;9.662;2024-01-06T12:02:20;100337.25;;;7.86;65.20
11648;BME280;5880;52.342;9.662;2024-01-06T12:04:52;100349.00;;;7.87;65.35
11648;BME280;5880;52.342;9.662;2024-01-06T12:07:20;100346.69;;;7.83;64.80
11648;BME280;5880;52.342;9.662;2024-01-06T12:09:48;100345.25;;;7.81;65.18
11648;BME280;5880;52.342;9.662;2024-01-06T12:12:20;100353.03;;;7.77;65.02
11648;BME280;5880;52.342;9.662;2024-01-06T12:14:46;100352.00;;;7.72;65.46
11648;BME280;5880;52.342;9.662;2024-01-06T12:17:12;100359.13;;;7.73;64.94
11648;BME280;5880;52.342;9.662;2024-01-06T12:19:40;100361.41;;;7.76;65.19
11648;BME280;5880;52.342;9.662;2024-01-06T12:22:13;100365.78;;;7.77;65.26
11648;BME280;5880;52.342;9.662;2024-01-06T12:24:39;100362.22;;;7.76;64.92
11648;BME280;5880;52.342;9.662;2024-01-06T12:27:08;100369.38;;;7.77;65.16
11648;BME280;5880;52.342;9.662;2024-01-06T12:29:43;100368.94;;;7.74;65.07
11648;BME280;5880;52.342;9.662;2024-01-06T12:32:10;100373.16;;;7.70;64.66
11648;BME280;5880;52.342;9.662;2024-01-06T12:34:38;100369.44;;;7.64;64.86
11648;BME280;5880;52.342;9.662;2024-01-06T12:37:05;100382.84;;;7.66;65.45
11648;BME280;5880;52.342;9.662;2024-01-06T12:39:31;100380.13;;;7.66;65.24
11648;BME280;5880;52.342;9.662;2024-01-06T12:41:58;100390.34;;;7.70;65.27
11648;BME280;5880;52.342;9.662;2024-01-06T12:44:26;100393.06;;;7.70;65.36
11648;BME280;5880;52.342;9.662;2024-01-06T12:46:52;100391.00;;;7.66;64.81
11648;BME280;5880;52.342;9.662;2024-01-06T12:49:18;100391.66;;;7.61;64.63
11648;BME280;5880;52.342;9.662;2024-01-06T12:51:43;100386.63;;;7.58;65.03
11648;BME280;5880;52.342;9.662;2024-01-06T12:54:09;100391.25;;;7.57;64.59
11648;BME280;5880;52.342;9.662;2024-01-06T12:56:35;100388.97;;;7.54;64.52
11648;BME280;5880;52.342;9.662;2024-01-06T12:59:01;100387.94;;;7.49;64.61
11648;BME280;5880;52.342;9.662;2024-01-06T13:01:26;100387.13;;;7.42;64.35
11648;BME280;5880;52.342;9.662;2024-01-06T13:03:52;100400.09;;;7.39;64.78
11648;BME280;5880;52.342;9.662;2024-01-06T13:06:20;100381.34;;;7.31;64.42
11648;BME280;5880;52.342;9.662;2024-01-06T13:08:46;100407.06;;;7.35;64.72
11648;BME280;5880;52.342;9.662;2024-01-06T13:11:11;100400.16;;;7.33;65.07
11648;BME280;5880;52.342;9.662;2024-01-06T13:13:37;100404.75;;;7.32;64.76